Time;durP1;ratioP1;P1;durP2;ratioP2;P2;SDS_P1;SDS_P2;PMS_P1;PMS_P2;Temp;Humidity;BMP_temperature;BMP_pressure;BME280_temperature;BME280_humidity;BME280_pressure;Samples;Min_cycle;Max_cycle;Signal;HPM_P1;HPM_P2
2021/06/28 00:00:56;;;;;;;17.65;16.20;;;19.60;74.60;;;;;;5159153;28;20105;-71
2021/06/28 00:03:27;;;;;;;17.58;16.27;;;19.50;74.50;;;;;;5160068;28;20066;-69
2021/06/28 00:06:00;;;;;;;17.48;16.17;;;19.50;74.70;;;;;;5160613;28;20044;-69
2021/06/28 00:08:32;;;;;;;17.15;15.85;;;19.50;73.80;;;;;;5156808;28;20136;-68
2021/06/28 00:11:06;;;;;;;17.52;16.02;;;19.50;74.30;;;;;;5157082;28;20045;-68
2021/06/28 00:13:41;;;;;;;17.33;16.02;;;19.50;73.40;;;;;;5160069;28;20101;-68
2021/06/28 00:16:13;;;;;;;17.30;16.00;;;19.50;73.80;;;;;;5160618;28;20077;-69
2021/06/28 00:18:45;;;;;;;16.73;15.50;;;19.50;74.50;;;;;;5157583;28;20054;-70
2021/06/28 00:21:17;;;;;;;17.33;15.93;;;19.40;74.20;;;;;;5158842;28;20054;-68
2021/06/28 00:23:49;;;;;;;16.70;15.50;;;19.40;74.70;;;;;;5159591;28;20420;-68
2021/06/28 00:26:21;;;;;;;16.90;15.68;;;19.40;74.80;;;;;;5157429;28;20116;-68
2021/06/28 00:28:53;;;;;;;16.98;15.68;;;19.30;74.40;;;;;;5161305;28;20046;-68
2021/06/28 00:31:25;;;;;;;16.55;15.32;;;19.30;74.10;;;;;;5159263;28;20070;-68
2021/06/28 00:33:58;;;;;;;16.88;15.57;;;19.30;74.30;;;;;;5159738;28;20038;-68
2021/06/28 00:36:31;;;;;;;16.25;15.05;;;19.40;74.10;;;;;;5154718;28;20039;-68
2021/06/28 00:39:03;;;;;;;16.73;15.43;;;19.30;74.40;;;;;;5160052;28;20047;-68
2021/06/28 00:41:35;;;;;;;16.70;15.50;;;19.30;74.20;;;;;;5159896;28;20513;-68
2021/06/28 00:44:07;;;;;;;16.80;15.40;;;19.30;74.30;;;;;;5157784;28;20467;-68
2021/06/28 00:46:39;;;;;;;16.13;14.93;;;19.20;75.20;;;;;;5159527;28;20113;-68
2021/06/28 00:49:11;;;;;;;16.83;15.52;;;19.20;74.40;;;;;;5159663;28;20373;-68
2021/06/28 00:51:42;;;;;;;16.73;15.43;;;19.10;74.80;;;;;;5159144;28;20077;-68
2021/06/28 00:54:15;;;;;;;16.73;15.38;;;19.10;74.20;;;;;;5161552;28;20045;-68
2021/06/28 00:56:47;;;;;;;16.83;15.52;;;19.10;75.80;;;;;;5153423;28;20042;-67
2021/06/28 00:59:20;;;;;;;17.17;15.77;;;19.00;74.80;;;;;;5162353;28;20046;-68
2021/06/28 01:01:52;;;;;;;17.05;15.75;;;19.00;75.50;;;;;;5160946;28;20074;-68
2021/06/28 01:04:24;;;;;;;17.00;15.70;;;18.90;75.40;;;;;;5164482;28;20652;-68
2021/06/28 01:06:56;;;;;;;17.08;15.55;;;18.90;75.70;;;;;;5162042;28;20133;-67
2021/06/28 01:09:28;;;;;;;17.60;16.20;;;18.80;75.00;;;;;;5164159;28;20042;-68
2021/06/28 01:12:01;;;;;;;17.30;16.00;;;18.90;75.60;;;;;;5164354;28;20512;-68
2021/06/28 01:14:34;;;;;;;17.52;16.13;;;18.80;76.10;;;;;;5165154;28;20916;-68
2021/06/28 01:17:06;;;;;;;17.48;15.98;;;18.80;75.00;;;;;;5160565;28;20065;-67
2021/06/28 01:19:42;;;;;;;16.75;15.45;;;18.80;75.10;;;;;;5163465;28;20120;-67
2021/06/28 01:22:18;;;;;;;17.45;15.95;;;18.80;75.10;;;;;;5178039;28;20732;-68
2021/06/28 01:24:50;;;;;;;16.98;15.68;;;18.80;75.50;;;;;;5163013;28;20054;-68
2021/06/28 01:27:23;;;;;;;17.55;16.15;;;18.80;75.70;;;;;;5158500;28;20078;-67
2021/06/28 01:29:56;;;;;;;16.63;15.32;;;18.70;75.80;;;;;;5163933;28;20467;-67
2021/06/28 01:32:28;;;;;;;16.98;15.57;;;18.70;76.80;;;;;;5163894;28;20043;-68
2021/06/28 01:35:00;;;;;;;17.15;15.73;;;18.70;76.80;;;;;;5165570;28;20468;-68
2021/06/28 01:37:32;;;;;;;17.08;15.77;;;18.60;76.60;;;;;;5160173;28;20041;-68
2021/06/28 01:40:07;;;;;;;17.30;16.00;;;18.50;76.90;;;;;;5160306;28;20137;-68
2021/06/28 01:42:39;;;;;;;17.55;16.10;;;18.60;76.50;;;;;;5160927;28;20049;-68
2021/06/28 01:45:23;;;;;;;17.45;15.95;;;18.60;76.90;;;;;;5165630;28;20105;-68
2021/06/28 01:47:59;;;;;;;17.45;16.05;;;18.50;77.00;;;;;;5160783;28;20038;-68
2021/06/28 01:50:33;;;;;;;17.35;15.95;;;18.50;76.00;;;;;;5162314;28;20089;-68
2021/06/28 01:53:06;;;;;;;17.45;16.05;;;18.50;76.90;;;;;;5160288;28;20113;-68
2021/06/28 01:55:39;;;;;;;18.05;16.65;;;18.50;76.50;;;;;;5162688;28;20130;-68
2021/06/28 01:58:14;;;;;;;17.70;16.40;;;18.50;77.30;;;;;;5161647;28;20093;-68
2021/06/28 02:00:49;;;;;;;17.45;16.15;;;18.40;77.70;;;;;;5161323;28;20050;-68
2021/06/28 02:03:23;;;;;;;18.00;16.40;;;18.30;77.90;;;;;;5161935;28;20401;-68
2021/06/28 02:05:57;;;;;;;18.15;16.75;;;18.20;78.10;;;;;;5160553;28;20426;-67
2021/06/28 02:08:32;;;;;;;18.48;17.08;;;18.10;78.40;;;;;;5158315;28;20073;-68
2021/06/28 02:11:07;;;;;;;17.55;16.25;;;18.10;77.80;;;;;;5162988;28;20042;-68
2021/06/28 02:13:39;;;;;;;18.67;17.08;;;18.10;77.70;;;;;;5161993;28;20109;-67
2021/06/28 02:16:11;;;;;;;18.98;17.33;;;18.00;78.40;;;;;;5161970;28;20061;-68
2021/06/28 02:18:43;;;;;;;18.25;16.75;;;18.00;79.70;;;;;;5161040;28;20211;-68
2021/06/28 02:21:15;;;;;;;18.17;16.77;;;17.90;79.90;;;;;;5163989;28;20619;-68
2021/06/28 02:23:47;;;;;;;18.10;16.70;;;17.80;79.90;;;;;;5161170;28;20419;-69
2021/06/28 02:26:18;;;;;;;18.50;16.90;;;17.80;79.60;;;;;;5160322;28;20132;-69
2021/06/28 02:28:50;;;;;;;18.40;17.00;;;17.80;79.20;;;;;;5161751;28;20053;-69
2021/06/28 02:31:23;;;;;;;17.92;16.52;;;17.70;79.30;;;;;;5162072;28;20101;-68
2021/06/28 02:33:56;;;;;;;17.63;16.15;;;17.60;79.50;;;;;;5164885;28;20038;-68
2021/06/28 02:36:28;;;;;;;17.95;16.60;;;17.60;79.50;;;;;;5160981;28;20043;-68
2021/06/28 02:39:01;;;;;;;18.25;16.77;;;17.50;79.80;;;;;;5160765;28;20518;-67
2021/06/28 02:41:33;;;;;;;17.85;16.48;;;17.50;80.00;;;;;;5160777;28;20061;-67
2021/06/28 02:44:05;;;;;;;17.70;16.40;;;17.50;80.00;;;;;;5159905;28;20218;-67
2021/06/28 02:46:37;;;;;;;18.08;16.67;;;17.50;79.80;;;;;;5162031;28;20385;-67
2021/06/28 02:49:09;;;;;;;17.95;16.55;;;17.40;80.20;;;;;;5159796;28;20082;-67
2021/06/28 02:51:41;;;;;;;18.08;16.67;;;17.40;80.40;;;;;;5159130;28;20722;-67
2021/06/28 02:54:14;;;;;;;17.92;16.52;;;17.40;80.00;;;;;;5159569;28;20480;-67
2021/06/28 02:56:46;;;;;;;17.60;16.30;;;17.40;80.70;;;;;;5159722;28;20047;-67
2021/06/28 02:59:18;;;;;;;18.13;16.73;;;17.30;80.80;;;;;;5159289;28;20763;-69
2021/06/28 03:01:49;;;;;;;17.83;16.33;;;17.40;80.00;;;;;;5161750;28;20105;-67
2021/06/28 03:04:21;;;;;;;17.70;16.23;;;17.30;81.20;;;;;;5162916;28;20050;-67
2021/06/28 03:06:53;;;;;;;18.10;16.70;;;17.30;80.70;;;;;;5159668;28;20705;-68
2021/06/28 03:09:25;;;;;;;18.02;16.55;;;17.30;80.80;;;;;;5160624;28;20392;-68
2021/06/28 03:11:57;;;;;;;17.92;16.45;;;17.30;80.80;;;;;;5157741;28;20671;-67
2021/06/28 03:14:29;;;;;;;17.88;16.48;;;17.30;80.10;;;;;;5161100;28;20066;-68
2021/06/28 03:17:01;;;;;;;17.60;16.20;;;17.40;80.70;;;;;;5158462;28;20049;-67
2021/06/28 03:19:33;;;;;;;17.48;16.17;;;17.30;80.20;;;;;;5156242;28;20078;-68
2021/06/28 03:22:05;;;;;;;17.75;16.20;;;17.40;80.20;;;;;;5157139;28;20085;-68
2021/06/28 03:24:37;;;;;;;17.60;16.25;;;17.30;80.40;;;;;;5158727;28;20507;-68
2021/06/28 03:27:09;;;;;;;17.73;16.25;;;17.20;80.70;;;;;;5154923;28;20151;-68
2021/06/28 03:29:41;;;;;;;17.88;16.38;;;17.10;80.30;;;;;;5159071;28;20389;-68
2021/06/28 03:32:13;;;;;;;17.27;15.98;;;17.10;80.90;;;;;;5158676;28;20806;-68
2021/06/28 03:34:45;;;;;;;17.10;15.80;;;17.10;80.20;;;;;;5161572;28;20145;-68
2021/06/28 03:37:18;;;;;;;18.08;16.67;;;17.10;80.40;;;;;;5158176;28;20042;-68
2021/06/28 03:39:49;;;;;;;17.95;16.55;;;17.10;80.50;;;;;;5159873;28;20156;-69
2021/06/28 03:42:21;;;;;;;17.27;15.98;;;17.20;80.30;;;;;;5160549;28;20096;-68
2021/06/28 03:44:53;;;;;;;17.83;16.50;;;17.20;79.90;;;;;;5162164;28;20498;-68
2021/06/28 03:47:25;;;;;;;17.35;15.98;;;17.20;79.20;;;;;;5160631;28;20046;-68
2021/06/28 03:49:57;;;;;;;18.13;16.55;;;17.20;79.90;;;;;;5161510;28;20034;-68
2021/06/28 03:52:29;;;;;;;17.65;16.35;;;17.20;79.30;;;;;;5159333;28;20038;-68
2021/06/28 03:55:02;;;;;;;17.00;15.75;;;17.30;79.30;;;;;;5161045;28;20042;-68
2021/06/28 03:57:35;;;;;;;17.40;16.05;;;17.30;79.30;;;;;;5158411;28;20246;-68
2021/06/28 04:00:11;;;;;;;17.25;15.75;;;17.30;79.30;;;;;;5159046;28;20110;-68
2021/06/28 04:02:44;;;;;;;16.88;15.57;;;17.30;79.80;;;;;;5161113;28;20069;-68
2021/06/28 04:05:22;;;;;;;16.67;15.38;;;17.20;80.20;;;;;;5158824;28;20142;-68
2021/06/28 04:07:54;;;;;;;17.30;15.80;;;17.20;79.70;;;;;;5160849;28;20050;-68
2021/06/28 04:10:26;;;;;;;16.70;15.40;;;17.20;79.50;;;;;;5160330;28;20145;-68
2021/06/28 04:12:58;;;;;;;16.73;15.32;;;17.20;80.20;;;;;;5160601;28;20045;-68
2021/06/28 04:15:30;;;;;;;16.73;15.52;;;17.20;80.50;;;;;;5160240;28;20046;-68
2021/06/28 04:18:02;;;;;;;17.38;15.98;;;17.20;80.10;;;;;;5159257;28;20523;-68
2021/06/28 04:20:34;;;;;;;17.02;15.68;;;17.20;80.50;;;;;;5159231;28;20487;-68
2021/06/28 04:23:07;;;;;;;17.45;16.05;;;17.30;80.80;;;;;;5158218;28;20043;-68
2021/06/28 04:25:39;;;;;;;17.63;15.90;;;17.30;80.20;;;;;;5163252;28;20046;-68
2021/06/28 04:28:12;;;;;;;17.40;16.02;;;17.30;80.10;;;;;;5162197;28;20046;-68
2021/06/28 04:30:44;;;;;;;17.33;15.93;;;17.20;81.10;;;;;;5158498;28;20100;-68
2021/06/28 04:33:16;;;;;;;17.58;16.08;;;17.20;81.60;;;;;;5158352;28;20053;-68
2021/06/28 04:35:48;;;;;;;17.27;15.95;;;17.10;81.70;;;;;;5160235;28;20141;-68
2021/06/28 04:38:20;;;;;;;17.65;16.35;;;17.30;80.20;;;;;;5164695;28;20582;-68
2021/06/28 04:40:52;;;;;;;18.45;16.95;;;17.30;79.40;;;;;;5164186;28;20566;-68
2021/06/28 04:43:24;;;;;;;18.45;16.95;;;17.50;81.30;;;;;;5166557;28;20042;-68
2021/06/28 04:45:56;;;;;;;19.52;17.80;;;17.50;82.30;;;;;;5159232;28;20141;-67
2021/06/28 04:48:27;;;;;;;18.90;17.40;;;17.70;81.80;;;;;;5160807;28;20046;-68
2021/06/28 04:50:59;;;;;;;17.83;16.33;;;17.80;81.30;;;;;;5161309;28;20121;-67
2021/06/28 04:53:32;;;;;;;17.73;16.42;;;17.90;81.90;;;;;;5162944;28;20044;-67
2021/06/28 04:56:04;;;;;;;18.05;16.65;;;18.00;81.60;;;;;;5162968;28;20046;-67
2021/06/28 04:58:36;;;;;;;17.40;16.00;;;18.10;81.60;;;;;;5164130;28;20670;-67
2021/06/28 05:01:08;;;;;;;17.98;16.48;;;18.10;81.20;;;;;;5156418;28;20104;-67
2021/06/28 05:03:40;;;;;;;17.95;16.45;;;18.30;81.20;;;;;;5161219;28;20141;-67
2021/06/28 05:06:12;;;;;;;17.95;16.65;;;18.30;80.50;;;;;;5162259;28;20046;-66
2021/06/28 05:08:44;;;;;;;17.77;16.35;;;18.40;80.30;;;;;;5161552;28;20133;-67
2021/06/28 05:11:16;;;;;;;18.08;16.65;;;18.50;80.60;;;;;;5158799;28;20511;-68
2021/06/28 05:13:47;;;;;;;17.58;16.27;;;18.60;80.40;;;;;;5160368;28;20052;-68
2021/06/28 05:16:22;;;;;;;18.33;16.85;;;18.70;80.40;;;;;;5162151;28;20134;-69
2021/06/28 05:18:54;;;;;;;18.15;16.75;;;18.80;80.10;;;;;;5159925;28;20070;-69
2021/06/28 05:21:26;;;;;;;19.00;17.50;;;18.90;79.90;;;;;;5163160;28;20042;-68
2021/06/28 05:23:58;;;;;;;18.13;16.65;;;19.00;80.10;;;;;;5157202;28;20125;-69
2021/06/28 05:26:30;;;;;;;18.20;16.77;;;19.10;79.80;;;;;;5160899;28;20876;-68
2021/06/28 05:29:02;;;;;;;17.98;16.58;;;19.20;80.10;;;;;;5161014;28;20046;-69
2021/06/28 05:31:34;;;;;;;17.75;16.45;;;19.30;79.80;;;;;;5161017;28;20168;-68
2021/06/28 05:34:06;;;;;;;18.40;17.00;;;19.40;78.70;;;;;;5162126;28;20129;-68
2021/06/28 05:36:38;;;;;;;18.15;16.80;;;19.50;79.00;;;;;;5159032;28;20116;-68
2021/06/28 05:39:10;;;;;;;18.65;17.25;;;19.50;78.30;;;;;;5160034;28;20121;-68
2021/06/28 05:41:42;;;;;;;17.90;16.60;;;19.60;78.10;;;;;;5159054;28;20634;-68
2021/06/28 05:44:14;;;;;;;18.63;17.13;;;19.70;78.00;;;;;;5157199;28;20471;-69
2021/06/28 05:46:46;;;;;;;19.00;17.58;;;19.70;77.80;;;;;;5157554;28;20225;-68
2021/06/28 05:49:18;;;;;;;19.00;17.50;;;19.80;77.90;;;;;;5158310;28;20447;-69
2021/06/28 05:51:50;;;;;;;19.42;17.83;;;19.80;76.70;;;;;;5160599;28;20042;-69
2021/06/28 05:54:22;;;;;;;19.17;17.77;;;19.90;76.60;;;;;;5158391;28;20842;-68
2021/06/28 05:56:54;;;;;;;19.40;17.90;;;20.00;75.70;;;;;;5161873;28;20880;-69
2021/06/28 05:59:26;;;;;;;18.88;17.38;;;20.00;75.50;;;;;;5160987;28;20144;-69
2021/06/28 06:01:57;;;;;;;19.17;17.67;;;20.20;75.00;;;;;;5161098;28;20654;-69
2021/06/28 06:04:30;;;;;;;18.90;17.50;;;20.30;75.20;;;;;;5163716;28;20451;-69
2021/06/28 06:07:05;;;;;;;19.20;17.70;;;20.40;74.90;;;;;;5160719;28;20137;-70
2021/06/28 06:09:37;;;;;;;19.38;17.88;;;20.50;74.40;;;;;;5159605;28;20066;-69
2021/06/28 06:12:10;;;;;;;19.58;17.98;;;20.60;74.00;;;;;;5158688;28;20600;-69
2021/06/28 06:14:42;;;;;;;18.90;17.50;;;20.70;74.70;;;;;;5160402;28;20622;-69
2021/06/28 06:17:14;;;;;;;19.55;18.05;;;20.80;74.30;;;;;;5156059;28;20046;-71
2021/06/28 06:19:46;;;;;;;19.05;17.45;;;20.90;74.10;;;;;;5160240;28;20121;-73
2021/06/28 06:22:18;;;;;;;19.33;17.83;;;21.00;74.00;;;;;;5154241;28;20042;-71
2021/06/28 06:24:50;;;;;;;18.75;17.35;;;21.10;73.80;;;;;;5158051;28;20052;-71
2021/06/28 06:27:22;;;;;;;19.35;17.88;;;21.20;73.50;;;;;;5159679;28;20085;-73
2021/06/28 06:29:53;;;;;;;19.48;17.98;;;21.30;72.80;;;;;;5158839;28;20066;-71
2021/06/28 06:32:25;;;;;;;19.40;18.00;;;21.40;72.40;;;;;;5152193;28;20140;-72
2021/06/28 06:34:57;;;;;;;20.20;18.70;;;21.50;72.90;;;;;;5162872;28;20050;-71
2021/06/28 06:37:31;;;;;;;20.38;18.83;;;21.60;71.30;;;;;;5160676;28;20062;-72
2021/06/28 06:40:05;;;;;;;19.05;17.65;;;21.70;72.20;;;;;;5162412;28;20560;-72
2021/06/28 06:42:37;;;;;;;19.67;18.27;;;21.80;71.20;;;;;;5164197;28;20092;-72
2021/06/28 06:45:10;;;;;;;20.20;18.80;;;21.90;71.00;;;;;;5162670;28;20057;-72
2021/06/28 06:47:43;;;;;;;19.88;18.38;;;22.00;70.80;;;;;;5162286;28;20400;-72
2021/06/28 06:50:16;;;;;;;18.98;17.42;;;22.10;69.60;;;;;;5161126;28;20038;-72
2021/06/28 06:52:50;;;;;;;19.48;17.98;;;22.10;71.20;;;;;;5163361;28;20578;-72
2021/06/28 06:55:22;;;;;;;20.05;18.42;;;22.10;69.40;;;;;;5160825;28;20101;-72
2021/06/28 06:57:54;;;;;;;19.08;17.58;;;22.10;71.00;;;;;;5158712;28;20101;-73
2021/06/28 07:00:26;;;;;;;19.05;17.55;;;22.10;71.20;;;;;;5160841;28;20578;-73
2021/06/28 07:02:58;;;;;;;19.63;18.13;;;22.20;70.90;;;;;;5158440;28;20123;-72
2021/06/28 07:05:30;;;;;;;18.88;17.48;;;22.40;70.70;;;;;;5161933;28;20093;-73
2021/06/28 07:08:03;;;;;;;19.80;18.10;;;22.50;69.10;;;;;;5174953;28;20058;-72
2021/06/28 07:10:35;;;;;;;19.52;18.13;;;22.60;70.10;;;;;;5158517;28;20073;-72
2021/06/28 07:13:07;;;;;;;19.70;18.20;;;22.70;70.20;;;;;;5159342;28;20050;-72
2021/06/28 07:15:39;;;;;;;19.45;18.05;;;22.80;68.90;;;;;;5162863;28;20060;-72
2021/06/28 07:18:11;;;;;;;19.90;18.42;;;22.90;68.10;;;;;;5158295;28;20043;-72
2021/06/28 07:20:43;;;;;;;20.02;18.35;;;23.10;67.20;;;;;;5160965;28;20519;-72
2021/06/28 07:23:15;;;;;;;19.60;18.10;;;23.10;68.50;;;;;;5161598;28;20066;-72
2021/06/28 07:25:47;;;;;;;19.42;17.92;;;23.30;67.10;;;;;;5161277;28;20049;-71
2021/06/28 07:28:19;;;;;;;19.73;18.23;;;23.30;65.30;;;;;;5158898;28;20050;-71
2021/06/28 07:30:56;;;;;;;19.98;18.25;;;23.40;68.00;;;;;;5158073;28;20165;-72
2021/06/28 07:33:31;;;;;;;20.13;18.45;;;23.50;66.60;;;;;;5162003;28;20503;-72
2021/06/28 07:36:03;;;;;;;19.40;17.90;;;23.70;67.00;;;;;;5162539;28;20057;-73
2021/06/28 07:38:35;;;;;;;20.08;18.45;;;23.80;66.00;;;;;;5159245;28;20045;-71
2021/06/28 07:41:08;;;;;;;19.48;17.90;;;23.80;64.80;;;;;;5159009;28;20092;-72
2021/06/28 07:43:40;;;;;;;21.13;19.52;;;23.90;63.40;;;;;;5158524;28;20595;-73
2021/06/28 07:46:12;;;;;;;20.50;18.90;;;24.00;64.80;;;;;;5160009;28;20792;-71
2021/06/28 07:48:44;;;;;;;20.00;18.40;;;24.10;64.90;;;;;;5155190;28;20897;-72
2021/06/28 07:51:16;;;;;;;19.08;17.67;;;24.20;65.20;;;;;;5155343;28;20084;-73
2021/06/28 07:53:47;;;;;;;19.92;18.40;;;24.20;64.50;;;;;;5161706;28;20100;-72
2021/06/28 07:56:19;;;;;;;19.95;18.50;;;24.30;63.60;;;;;;5160017;28;20078;-70
2021/06/28 07:58:51;;;;;;;19.60;17.95;;;24.40;62.90;;;;;;5156795;28;20937;-72
2021/06/28 08:01:23;;;;;;;19.15;17.75;;;24.30;62.30;;;;;;5156360;28;20151;-73
2021/06/28 08:03:56;;;;;;;19.52;18.13;;;24.40;60.80;;;;;;5163725;28;20054;-72
2021/06/28 08:06:28;;;;;;;19.13;17.63;;;24.40;60.60;;;;;;5158360;28;20081;-72
2021/06/28 08:09:00;;;;;;;19.23;17.70;;;24.50;61.40;;;;;;5158428;28;20112;-72
2021/06/28 08:11:32;;;;;;;19.75;18.10;;;24.40;61.10;;;;;;5159224;28;20042;-71
2021/06/28 08:14:05;;;;;;;19.60;17.80;;;24.60;62.00;;;;;;5162918;28;20136;-72
2021/06/28 08:16:37;;;;;;;18.70;17.30;;;24.60;61.90;;;;;;5160538;28;20062;-71
2021/06/28 08:19:10;;;;;;;19.33;17.83;;;24.70;61.70;;;;;;5157075;28;20074;-71
2021/06/28 08:21:42;;;;;;;19.33;17.83;;;24.70;61.70;;;;;;5158449;28;20101;-71
2021/06/28 08:24:15;;;;;;;19.73;18.00;;;24.80;60.50;;;;;;5159096;28;20050;-71
2021/06/28 08:26:51;;;;;;;19.33;17.92;;;24.90;61.30;;;;;;5158679;28;20113;-71
2021/06/28 08:29:23;;;;;;;19.90;18.30;;;25.00;61.50;;;;;;5158172;28;20524;-71
2021/06/28 08:31:55;;;;;;;20.13;18.63;;;25.10;61.60;;;;;;5159884;28;20564;-71
2021/06/28 08:34:27;;;;;;;19.48;17.98;;;25.20;61.50;;;;;;5158940;28;20538;-71
2021/06/28 08:37:00;;;;;;;19.52;17.90;;;25.20;61.90;;;;;;5159930;28;20042;-71
2021/06/28 08:39:32;;;;;;;19.20;17.80;;;25.30;62.90;;;;;;5152978;28;20043;-71
2021/06/28 08:42:06;;;;;;;19.45;18.05;;;25.30;61.00;;;;;;5156321;28;20050;-71
2021/06/28 08:44:38;;;;;;;18.85;17.33;;;25.40;61.80;;;;;;5159209;28;20045;-71
2021/06/28 08:47:11;;;;;;;19.15;17.67;;;25.40;63.10;;;;;;5156319;28;20052;-71
2021/06/28 08:49:43;;;;;;;18.70;17.30;;;25.50;62.50;;;;;;5158695;28;20189;-71
2021/06/28 08:52:17;;;;;;;18.60;17.13;;;25.60;60.50;;;;;;5173039;28;20177;-71
2021/06/28 08:54:49;;;;;;;18.92;17.52;;;25.70;61.50;;;;;;5160128;28;20062;-70
2021/06/28 08:57:21;;;;;;;18.92;17.52;;;25.80;62.80;;;;;;5158068;28;20130;-71
2021/06/28 08:59:53;;;;;;;19.75;18.10;;;25.80;60.90;;;;;;5159183;28;20047;-70
2021/06/28 09:02:25;;;;;;;19.52;18.13;;;25.80;62.40;;;;;;5159332;28;20042;-70
2021/06/28 09:05:06;;;;;;;19.50;18.00;;;25.90;62.40;;;;;;5159142;28;20141;-70
2021/06/28 09:07:38;;;;;;;19.73;18.10;;;25.90;61.50;;;;;;5156962;28;20142;-70
2021/06/28 09:10:30;;;;;;;19.73;18.25;;;25.90;61.60;;;;;;5156138;28;20129;-70
2021/06/28 09:13:03;;;;;;;19.55;18.15;;;26.00;62.20;;;;;;5162158;28;20050;-71
2021/06/28 09:15:40;;;;;;;19.13;17.70;;;26.20;61.20;;;;;;5157797;28;20066;-71
2021/06/28 09:18:24;;;;;;;19.75;18.17;;;26.20;62.00;;;;;;5158176;28;20154;-71
2021/06/28 09:21:08;;;;;;;19.33;17.83;;;26.30;62.40;;;;;;5156823;28;20050;-71
2021/06/28 09:23:41;;;;;;;19.85;18.08;;;26.40;62.10;;;;;;5168723;28;20054;-69
2021/06/28 09:26:15;;;;;;;19.83;18.23;;;26.50;60.10;;;;;;5159608;28;20070;-71
2021/06/28 09:28:49;;;;;;;20.15;18.45;;;26.60;60.40;;;;;;5163011;28;20078;-70
2021/06/28 09:31:45;;;;;;;19.48;17.92;;;26.70;60.10;;;;;;5159729;28;20053;-70
2021/06/28 09:34:21;;;;;;;20.02;18.63;;;26.70;61.70;;;;;;5161398;28;20065;-68
2021/06/28 09:36:57;;;;;;;20.00;18.40;;;26.80;60.80;;;;;;5162516;28;20816;-70
2021/06/28 09:39:40;;;;;;;19.15;17.75;;;26.90;62.30;;;;;;5160857;28;20194;-69
2021/06/28 09:42:15;;;;;;;19.55;18.05;;;27.00;62.50;;;;;;5159950;28;20038;-70
2021/06/28 09:44:57;;;;;;;19.33;17.92;;;27.10;60.70;;;;;;5159353;28;20050;-70
2021/06/28 09:47:32;;;;;;;18.90;17.50;;;27.10;58.60;;;;;;5160478;28;20049;-71
2021/06/28 09:50:09;;;;;;;20.10;18.50;;;27.10;60.80;;;;;;5161854;28;20043;-69
2021/06/28 09:52:51;;;;;;;19.65;18.05;;;27.10;57.30;;;;;;5161115;28;20042;-71
2021/06/28 09:55:25;;;;;;;19.77;18.17;;;27.20;60.10;;;;;;5161492;28;20038;-69
2021/06/28 09:58:17;;;;;;;19.45;17.95;;;27.30;58.10;;;;;;5159090;28;20412;-69
2021/06/28 10:00:52;;;;;;;19.52;18.13;;;27.30;59.90;;;;;;5158956;28;20128;-70
2021/06/28 10:03:29;;;;;;;20.33;18.77;;;27.40;59.00;;;;;;5160578;28;20703;-70
2021/06/28 10:06:10;;;;;;;20.25;18.60;;;27.50;58.70;;;;;;5161123;28;20042;-70
2021/06/28 10:08:45;;;;;;;19.98;18.48;;;27.70;61.50;;;;;;5161891;28;20046;-70
2021/06/28 10:11:24;;;;;;;21.08;19.50;;;27.70;57.30;;;;;;5161240;28;20038;-70
2021/06/28 10:13:57;;;;;;;20.40;18.90;;;27.80;57.10;;;;;;5160800;28;20480;-71
2021/06/28 10:16:32;;;;;;;20.60;18.98;;;27.80;58.30;;;;;;5158505;28;20108;-69
2021/06/28 10:19:07;;;;;;;20.35;18.85;;;27.90;56.50;;;;;;5153390;28;20120;-71
2021/06/28 10:21:39;;;;;;;20.17;18.65;;;27.90;56.50;;;;;;5159847;28;20153;-70
2021/06/28 10:24:11;;;;;;;20.73;19.13;;;27.90;57.50;;;;;;5157732;28;20515;-70
2021/06/28 10:26:43;;;;;;;20.83;19.08;;;27.80;56.90;;;;;;5161930;28;20057;-71
2021/06/28 10:29:15;;;;;;;20.88;19.17;;;27.90;56.30;;;;;;5160494;28;20046;-71
2021/06/28 10:31:47;;;;;;;20.40;18.90;;;28.00;57.20;;;;;;5160472;28;20078;-71
2021/06/28 10:34:19;;;;;;;19.85;18.35;;;28.00;57.30;;;;;;5161226;28;20057;-71
2021/06/28 10:36:55;;;;;;;19.30;17.75;;;27.80;56.10;;;;;;5160331;28;20049;-71
2021/06/28 10:39:30;;;;;;;20.73;19.13;;;27.60;58.00;;;;;;5161218;28;20385;-71
2021/06/28 10:42:03;;;;;;;20.27;18.77;;;27.60;57.40;;;;;;5160112;28;20050;-71
2021/06/28 10:44:47;;;;;;;20.38;18.77;;;27.70;57.50;;;;;;5157671;28;20473;-71
2021/06/28 10:47:19;;;;;;;19.80;18.40;;;27.90;57.80;;;;;;5156895;28;20042;-71
2021/06/28 10:49:52;;;;;;;20.15;18.70;;;27.70;58.40;;;;;;5160647;28;20085;-70
2021/06/28 10:52:41;;;;;;;20.33;18.70;;;27.60;58.40;;;;;;5157907;28;20515;-71
2021/06/28 10:55:20;;;;;;;20.80;19.13;;;27.50;57.80;;;;;;5160186;28;20129;-71
2021/06/28 10:57:53;;;;;;;20.60;18.90;;;27.70;57.30;;;;;;5158884;28;20089;-70
2021/06/28 11:01:01;;;;;;;20.83;19.23;;;27.80;58.30;;;;;;5157746;28;20057;-71
2021/06/28 11:03:34;;;;;;;20.52;18.92;;;28.00;59.40;;;;;;5158968;28;20065;-71
2021/06/28 11:06:17;;;;;;;20.27;18.77;;;28.20;58.70;;;;;;5157786;28;20057;-72
2021/06/28 11:09:00;;;;;;;20.13;18.52;;;28.30;57.70;;;;;;5162782;28;20050;-70
2021/06/28 11:11:44;;;;;;;19.20;17.77;;;28.20;56.80;;;;;;5160589;28;20066;-72
2021/06/28 11:14:19;;;;;;;19.75;18.15;;;28.00;57.10;;;;;;5166638;28;20050;-70
2021/06/28 11:17:08;;;;;;;20.25;18.65;;;27.90;58.10;;;;;;5160364;28;20558;-71
2021/06/28 11:19:50;;;;;;;19.83;18.42;;;28.20;57.70;;;;;;5161016;28;20523;-71
2021/06/28 11:22:31;;;;;;;20.85;19.20;;;28.40;57.20;;;;;;5158962;28;20129;-70
2021/06/28 11:25:09;;;;;;;20.40;18.90;;;28.60;56.30;;;;;;5157803;28;20069;-70
2021/06/28 11:28:02;;;;;;;20.33;18.73;;;28.90;56.50;;;;;;5160426;28;20105;-70
2021/06/28 11:30:36;;;;;;;20.45;18.75;;;29.10;57.70;;;;;;5133300;28;20050;-71
2021/06/28 11:33:12;;;;;;;20.40;18.80;;;29.10;55.10;;;;;;5159576;28;20898;-72
2021/06/28 11:35:52;;;;;;;21.15;19.50;;;29.40;54.30;;;;;;5152662;28;20046;-71
2021/06/28 11:38:33;;;;;;;21.13;19.38;;;29.50;54.90;;;;;;5160055;28;20121;-71
2021/06/28 11:41:09;;;;;;;20.55;18.85;;;29.70;52.60;;;;;;5159739;28;20043;-70
2021/06/28 11:44:01;;;;;;;21.08;19.48;;;29.80;48.10;;;;;;5157047;28;20171;-71
2021/06/28 11:46:36;;;;;;;20.67;19.02;;;29.80;51.00;;;;;;5159796;28;20034;-70
2021/06/28 11:49:12;;;;;;;20.85;19.15;;;29.70;51.40;;;;;;5159313;28;20037;-70
2021/06/28 11:51:51;;;;;;;20.50;19.00;;;29.50;50.10;;;;;;5161182;28;20054;-71
2021/06/28 11:54:24;;;;;;;19.98;18.48;;;29.20;51.10;;;;;;5160080;28;20066;-72
2021/06/28 11:56:59;;;;;;;19.77;18.17;;;29.00;52.70;;;;;;5154449;28;20045;-70
2021/06/28 11:59:31;;;;;;;21.13;19.42;;;29.00;53.10;;;;;;5159373;28;20053;-71
2021/06/28 12:02:04;;;;;;;20.73;19.10;;;29.10;49.90;;;;;;5158638;28;20065;-71
2021/06/28 12:04:37;;;;;;;21.08;19.30;;;29.20;50.50;;;;;;5156344;28;20042;-72
2021/06/28 12:07:12;;;;;;;20.27;18.77;;;29.30;50.90;;;;;;5161530;28;20042;-71
2021/06/28 12:09:48;;;;;;;20.83;19.23;;;29.40;53.30;;;;;;5159469;28;20121;-71
2021/06/28 12:12:21;;;;;;;20.63;19.02;;;29.50;52.40;;;;;;5161017;28;20042;-71
2021/06/28 12:14:53;;;;;;;21.35;19.65;;;29.50;50.10;;;;;;5160274;28;20050;-71
2021/06/28 12:17:30;;;;;;;21.27;19.63;;;29.70;49.20;;;;;;5159715;28;20062;-71
2021/06/28 12:20:07;;;;;;;21.58;19.67;;;29.80;50.50;;;;;;5160923;28;20619;-70
2021/06/28 12:22:39;;;;;;;20.90;19.30;;;29.80;48.50;;;;;;5155801;28;20034;-71
2021/06/28 12:25:14;;;;;;;21.42;19.83;;;29.90;49.20;;;;;;5154329;28;20052;-71
2021/06/28 12:27:48;;;;;;;21.35;19.75;;;30.00;51.20;;;;;;5156513;28;20088;-71
2021/06/28 12:30:22;;;;;;;21.48;19.77;;;30.10;47.80;;;;;;5156758;28;20053;-70
2021/06/28 12:32:57;;;;;;;21.30;19.70;;;30.20;48.30;;;;;;5156506;28;20563;-71
2021/06/28 12:35:30;;;;;;;21.67;20.08;;;30.30;47.70;;;;;;5158486;28;20096;-70
2021/06/28 12:38:04;;;;;;;21.95;20.35;;;30.30;48.60;;;;;;5157681;28;20050;-71
2021/06/28 12:40:38;;;;;;;21.63;20.02;;;30.30;47.70;;;;;;5157799;28;20566;-69
2021/06/28 12:43:16;;;;;;;21.60;19.98;;;30.40;47.60;;;;;;5156913;28;20045;-71
2021/06/28 12:45:52;;;;;;;21.23;19.63;;;30.30;46.60;;;;;;5142342;28;20054;-70
2021/06/28 12:48:30;;;;;;;21.30;19.70;;;29.90;44.50;;;;;;5153135;28;20047;-70
2021/06/28 12:51:05;;;;;;;21.23;19.52;;;29.60;46.60;;;;;;5151137;28;20050;-70
2021/06/28 12:53:38;;;;;;;21.10;19.50;;;29.50;49.40;;;;;;5154189;28;20089;-71
2021/06/28 12:56:19;;;;;;;21.13;19.45;;;29.40;48.10;;;;;;5153720;28;20045;-70
2021/06/28 12:58:54;;;;;;;21.52;19.80;;;29.30;47.50;;;;;;5156131;28;20047;-71
2021/06/28 13:01:36;;;;;;;21.65;19.85;;;29.20;48.30;;;;;;5156788;28;20057;-70